sensor_id;sensor_type;location;lat;lon;timestamp;P1;durP1;ratioP1;P2;durP2;ratioP2
41221;SDS011;26952;42.884;23.918;2023-01-19T00:01:35;34.00;;;18.55;;
41221;SDS011;26952;42.884;23.918;2023-01-19T00:04:01;35.28;;;15.98;;
41221;SDS011;26952;42.884;23.918;2023-01-19T00:06:26;38.17;;;18.00;;
41221;SDS011;26952;42.884;23.918;2023-01-19T00:08:51;31.02;;;17.98;;
41221;SDS011;26952;42.884;23.918;2023-01-19T00:11:17;32.08;;;17.33;;
41221;SDS011;26952;42.884;23.918;2023-01-19T00:13:42;37.50;;;18.35;;
41221;SDS011;26952;42.884;23.918;2023-01-19T00:16:13;33.25;;;15.48;;
41221;SDS011;26952;42.884;23.918;2023-01-19T00:18:41;36.90;;;16.38;;
41221;SDS011;26952;42.884;23.918;2023-01-19T00:21:07;31.50;;;17.05;;
41221;SDS011;26952;42.884;23.918;2023-01-19T00:23:32;33.80;;;16.23;;
41221;SDS011;26952;42.884;23.918;2023-01-19T00:25:58;34.38;;;14.35;;
41221;SDS011;26952;42.884;23.918;2023-01-19T00:28:23;39.05;;;13.52;;
41221;SDS011;26952;42.884;23.918;2023-01-19T00:30:49;22.38;;;11.77;;
41221;SDS011;26952;42.884;23.918;2023-01-19T00:33:15;30.35;;;13.73;;
41221;SDS011;26952;42.884;23.918;2023-01-19T00:35:41;36.20;;;13.38;;
41221;SDS011;26952;42.884;23.918;2023-01-19T00:38:07;32.60;;;15.55;;
41221;SDS011;26952;42.884;23.918;2023-01-19T00:40:33;37.38;;;12.98;;
41221;SDS011;26952;42.884;23.918;2023-01-19T00:42:58;31.70;;;13.05;;
41221;SDS011;26952;42.884;23.918;2023-01-19T00:45:24;31.65;;;10.63;;
41221;SDS011;26952;42.884;23.918;2023-01-19T00:47:50;37.63;;;12.07;;
41221;SDS011;26952;42.884;23.918;2023-01-19T00:50:21;36.83;;;12.57;;
41221;SDS011;26952;42.884;23.918;2023-01-19T00:52:47;25.33;;;9.77;;
41221;SDS011;26952;42.884;23.918;2023-01-19T00:55:14;24.77;;;7.97;;
41221;SDS011;26952;42.884;23.918;2023-01-19T00:57:40;30.42;;;7.90;;
41221;SDS011;26952;42.884;23.918;2023-01-19T01:00:10;31.73;;;8.52;;
41221;SDS011;26952;42.884;23.918;2023-01-19T01:02:38;22.23;;;12.60;;
41221;SDS011;26952;42.884;23.918;2023-01-19T01:05:05;23.80;;;8.07;;
41221;SDS011;26952;42.884;23.918;2023-01-19T01:07:31;27.52;;;8.35;;
41221;SDS011;26952;42.884;23.918;2023-01-19T01:10:06;33.58;;;7.97;;
41221;SDS011;26952;42.884;23.918;2023-01-19T01:12:33;25.80;;;7.40;;
41221;SDS011;26952;42.884;23.918;2023-01-19T01:14:59;26.67;;;8.25;;
41221;SDS011;26952;42.884;23.918;2023-01-19T01:17:24;24.20;;;9.23;;
41221;SDS011;26952;42.884;23.918;2023-01-19T01:19:50;29.70;;;9.32;;
41221;SDS011;26952;42.884;23.918;2023-01-19T01:22:16;34.80;;;9.32;;
41221;SDS011;26952;42.884;23.918;2023-01-19T01:24:42;28.30;;;9.65;;
41221;SDS011;26952;42.884;23.918;2023-01-19T01:27:07;29.23;;;9.65;;
41221;SDS011;26952;42.884;23.918;2023-01-19T01:29:33;30.13;;;8.73;;
41221;SDS011;26952;42.884;23.918;2023-01-19T01:31:59;31.65;;;8.23;;
41221;SDS011;26952;42.884;23.918;2023-01-19T01:34:25;26.80;;;8.75;;
41221;SDS011;26952;42.884;23.918;2023-01-19T01:36:51;26.05;;;8.57;;
41221;SDS011;26952;42.884;23.918;2023-01-19T01:39:16;30.58;;;9.35;;
41221;SDS011;26952;42.884;23.918;2023-01-19T01:41:41;26.25;;;7.90;;
41221;SDS011;26952;42.884;23.918;2023-01-19T01:44:41;26.77;;;8.00;;
41221;SDS011;26952;42.884;23.918;2023-01-19T01:50:05;32.17;;;9.32;;
41221;SDS011;26952;42.884;23.918;2023-01-19T01:52:36;27.88;;;8.73;;
41221;SDS011;26952;42.884;23.918;2023-01-19T01:55:08;22.75;;;8.00;;
41221;SDS011;26952;42.884;23.918;2023-01-19T01:57:36;20.73;;;9.60;;
41221;SDS011;26952;42.884;23.918;2023-01-19T02:00:06;36.10;;;9.48;;
41221;SDS011;26952;42.884;23.918;2023-01-19T02:02:33;31.55;;;9.32;;
41221;SDS011;26952;42.884;23.918;2023-01-19T02:10:28;29.00;;;9.75;;
41221;SDS011;26952;42.884;23.918;2023-01-19T02:13:12;20.90;;;9.68;;
41221;SDS011;26952;42.884;23.918;2023-01-19T02:15:43;27.25;;;10.85;;
41221;SDS011;26952;42.884;23.918;2023-01-19T02:18:08;23.42;;;9.60;;
41221;SDS011;26952;42.884;23.918;2023-01-19T02:20:34;23.75;;;9.57;;
41221;SDS011;26952;42.884;23.918;2023-01-19T02:23:02;30.25;;;11.50;;
41221;SDS011;26952;42.884;23.918;2023-01-19T02:25:32;30.65;;;10.93;;
41221;SDS011;26952;42.884;23.918;2023-01-19T02:27:58;28.65;;;10.70;;
41221;SDS011;26952;42.884;23.918;2023-01-19T02:30:24;28.92;;;8.98;;
41221;SDS011;26952;42.884;23.918;2023-01-19T02:32:50;30.33;;;10.20;;
41221;SDS011;26952;42.884;23.918;2023-01-19T02:35:16;24.10;;;10.98;;
41221;SDS011;26952;42.884;23.918;2023-01-19T02:37:42;31.50;;;10.27;;
41221;SDS011;26952;42.884;23.918;2023-01-19T02:40:09;20.40;;;8.63;;
41221;SDS011;26952;42.884;23.918;2023-01-19T02:42:39;24.45;;;9.27;;
41221;SDS011;26952;42.884;23.918;2023-01-19T02:45:13;22.90;;;8.32;;
41221;SDS011;26952;42.884;23.918;2023-01-19T02:47:44;30.30;;;9.38;;
41221;SDS011;26952;42.884;23.918;2023-01-19T03:01:27;17.02;;;7.25;;
41221;SDS011;26952;42.884;23.918;2023-01-19T03:07:07;26.10;;;7.75;;
41221;SDS011;26952;42.884;23.918;2023-01-19T03:09:38;26.48;;;9.20;;
41221;SDS011;26952;42.884;23.918;2023-01-19T03:14:44;27.25;;;9.60;;
41221;SDS011;26952;42.884;23.918;2023-01-19T03:17:11;32.22;;;9.05;;
41221;SDS011;26952;42.884;23.918;2023-01-19T03:19:41;23.50;;;8.38;;
41221;SDS011;26952;42.884;23.918;2023-01-19T03:22:12;28.30;;;9.80;;
41221;SDS011;26952;42.884;23.918;2023-01-19T03:24:42;41.05;;;10.88;;
41221;SDS011;26952;42.884;23.918;2023-01-19T03:27:14;21.55;;;9.40;;
41221;SDS011;26952;42.884;23.918;2023-01-19T03:29:49;31.38;;;9.23;;
41221;SDS011;26952;42.884;23.918;2023-01-19T03:32:20;27.65;;;9.88;;
41221;SDS011;26952;42.884;23.918;2023-01-19T03:34:49;31.48;;;9.90;;
41221;SDS011;26952;42.884;23.918;2023-01-19T03:37:17;28.83;;;10.40;;
41221;SDS011;26952;42.884;23.918;2023-01-19T03:39:45;30.42;;;9.32;;
41221;SDS011;26952;42.884;23.918;2023-01-19T03:42:12;29.45;;;9.85;;
41221;SDS011;26952;42.884;23.918;2023-01-19T03:44:40;32.55;;;10.23;;
41221;SDS011;26952;42.884;23.918;2023-01-19T03:47:07;36.08;;;10.52;;
41221;SDS011;26952;42.884;23.918;2023-01-19T03:49:35;22.10;;;10.32;;
41221;SDS011;26952;42.884;23.918;2023-01-19T03:52:03;36.47;;;9.65;;
41221;SDS011;26952;42.884;23.918;2023-01-19T03:54:28;23.35;;;8.02;;
41221;SDS011;26952;42.884;23.918;2023-01-19T03:56:54;37.58;;;9.63;;
41221;SDS011;26952;42.884;23.918;2023-01-19T03:59:19;24.08;;;9.45;;
41221;SDS011;26952;42.884;23.918;2023-01-19T04:01:46;33.13;;;8.60;;
41221;SDS011;26952;42.884;23.918;2023-01-19T04:04:11;38.53;;;10.05;;
41221;SDS011;26952;42.884;23.918;2023-01-19T04:06:38;29.08;;;10.57;;
41221;SDS011;26952;42.884;23.918;2023-01-19T04:09:03;32.33;;;8.57;;
41221;SDS011;26952;42.884;23.918;2023-01-19T04:11:29;26.73;;;8.27;;
41221;SDS011;26952;42.884;23.918;2023-01-19T04:13:54;34.42;;;10.93;;
41221;SDS011;26952;42.884;23.918;2023-01-19T04:16:20;20.85;;;8.07;;
41221;SDS011;26952;42.884;23.918;2023-01-19T04:18:46;28.60;;;9.73;;
41221;SDS011;26952;42.884;23.918;2023-01-19T04:21:11;24.95;;;10.02;;
41221;SDS011;26952;42.884;23.918;2023-01-19T04:23:37;32.45;;;9.68;;
41221;SDS011;26952;42.884;23.918;2023-01-19T04:26:03;29.75;;;10.20;;
41221;SDS011;26952;42.884;23.918;2023-01-19T04:28:30;25.08;;;9.25;;
41221;SDS011;26952;42.884;23.918;2023-01-19T04:30:57;36.15;;;9.68;;
41221;SDS011;26952;42.884;23.918;2023-01-19T04:33:22;32.75;;;10.45;;
41221;SDS011;26952;42.884;23.918;2023-01-19T04:35:48;23.88;;;9.18;;
41221;SDS011;26952;42.884;23.918;2023-01-19T04:38:15;29.52;;;9.10;;
41221;SDS011;26952;42.884;23.918;2023-01-19T04:40:41;28.90;;;8.82;;
41221;SDS011;26952;42.884;23.918;2023-01-19T04:43:06;31.95;;;9.40;;
41221;SDS011;26952;42.884;23.918;2023-01-19T04:45:32;37.30;;;9.77;;
41221;SDS011;26952;42.884;23.918;2023-01-19T04:47:58;32.10;;;9.35;;
41221;SDS011;26952;42.884;23.918;2023-01-19T04:50:23;25.23;;;9.82;;
41221;SDS011;26952;42.884;23.918;2023-01-19T04:52:49;25.30;;;10.05;;
41221;SDS011;26952;42.884;23.918;2023-01-19T04:55:14;20.02;;;9.32;;
41221;SDS011;26952;42.884;23.918;2023-01-19T04:57:40;36.25;;;9.73;;
41221;SDS011;26952;42.884;23.918;2023-01-19T05:00:06;30.05;;;10.13;;
41221;SDS011;26952;42.884;23.918;2023-01-19T05:02:32;30.80;;;10.05;;
41221;SDS011;26952;42.884;23.918;2023-01-19T05:04:58;28.23;;;9.57;;
41221;SDS011;26952;42.884;23.918;2023-01-19T05:07:23;25.13;;;9.52;;
41221;SDS011;26952;42.884;23.918;2023-01-19T05:09:49;30.30;;;11.27;;
41221;SDS011;26952;42.884;23.918;2023-01-19T05:12:14;25.13;;;9.68;;
41221;SDS011;26952;42.884;23.918;2023-01-19T05:14:40;29.88;;;9.85;;
41221;SDS011;26952;42.884;23.918;2023-01-19T05:17:05;27.67;;;9.93;;
41221;SDS011;26952;42.884;23.918;2023-01-19T05:19:31;24.92;;;9.52;;
41221;SDS011;26952;42.884;23.918;2023-01-19T05:21:56;27.50;;;8.95;;
41221;SDS011;26952;42.884;23.918;2023-01-19T05:24:22;22.80;;;10.13;;
41221;SDS011;26952;42.884;23.918;2023-01-19T05:26:47;39.08;;;10.07;;
41221;SDS011;26952;42.884;23.918;2023-01-19T05:29:13;30.83;;;10.23;;
41221;SDS011;26952;42.884;23.918;2023-01-19T05:31:38;24.92;;;8.63;;
41221;SDS011;26952;42.884;23.918;2023-01-19T05:34:04;23.83;;;9.05;;
41221;SDS011;26952;42.884;23.918;2023-01-19T05:36:31;31.10;;;10.45;;
41221;SDS011;26952;42.884;23.918;2023-01-19T05:38:57;23.08;;;9.95;;
41221;SDS011;26952;42.884;23.918;2023-01-19T05:41:23;30.55;;;11.20;;
41221;SDS011;26952;42.884;23.918;2023-01-19T05:43:50;29.05;;;11.35;;
41221;SDS011;26952;42.884;23.918;2023-01-19T05:46:15;23.77;;;9.32;;
41221;SDS011;26952;42.884;23.918;2023-01-19T05:48:41;26.58;;;10.13;;
41221;SDS011;26952;42.884;23.918;2023-01-19T05:51:06;27.42;;;9.32;;
41221;SDS011;26952;42.884;23.918;2023-01-19T05:53:33;25.75;;;9.23;;
41221;SDS011;26952;42.884;23.918;2023-01-19T05:56:02;30.98;;;10.45;;
41221;SDS011;26952;42.884;23.918;2023-01-19T05:58:29;33.65;;;9.95;;
41221;SDS011;26952;42.884;23.918;2023-01-19T06:00:55;35.03;;;8.80;;
41221;SDS011;26952;42.884;23.918;2023-01-19T06:03:20;28.25;;;9.35;;
41221;SDS011;26952;42.884;23.918;2023-01-19T06:05:46;22.98;;;9.57;;
41221;SDS011;26952;42.884;23.918;2023-01-19T06:08:11;27.40;;;9.10;;
41221;SDS011;26952;42.884;23.918;2023-01-19T06:10:37;27.60;;;8.98;;
41221;SDS011;26952;42.884;23.918;2023-01-19T06:13:02;34.67;;;10.05;;
41221;SDS011;26952;42.884;23.918;2023-01-19T06:15:28;26.75;;;9.05;;
41221;SDS011;26952;42.884;23.918;2023-01-19T06:17:53;26.38;;;8.88;;
41221;SDS011;26952;42.884;23.918;2023-01-19T06:20:19;31.92;;;10.82;;
41221;SDS011;26952;42.884;23.918;2023-01-19T06:22:44;24.48;;;9.52;;
41221;SDS011;26952;42.884;23.918;2023-01-19T06:25:10;32.63;;;10.15;;
41221;SDS011;26952;42.884;23.918;2023-01-19T06:27:36;23.02;;;10.98;;
41221;SDS011;26952;42.884;23.918;2023-01-19T06:30:02;23.17;;;9.75;;
41221;SDS011;26952;42.884;23.918;2023-01-19T06:32:28;26.50;;;9.73;;
41221;SDS011;26952;42.884;23.918;2023-01-19T06:34:54;29.15;;;11.25;;
41221;SDS011;26952;42.884;23.918;2023-01-19T06:37:20;30.77;;;9.63;;
41221;SDS011;26952;42.884;23.918;2023-01-19T06:39:45;25.45;;;9.60;;
41221;SDS011;26952;42.884;23.918;2023-01-19T06:42:11;26.02;;;12.20;;
41221;SDS011;26952;42.884;23.918;2023-01-19T06:44:36;29.85;;;10.73;;
41221;SDS011;26952;42.884;23.918;2023-01-19T06:47:01;30.48;;;10.20;;
41221;SDS011;26952;42.884;23.918;2023-01-19T06:49:27;33.03;;;11.20;;
41221;SDS011;26952;42.884;23.918;2023-01-19T06:51:52;34.17;;;11.48;;
41221;SDS011;26952;42.884;23.918;2023-01-19T06:54:17;32.67;;;10.95;;
41221;SDS011;26952;42.884;23.918;2023-01-19T06:56:43;25.58;;;11.40;;
41221;SDS011;26952;42.884;23.918;2023-01-19T06:59:08;29.08;;;11.23;;
41221;SDS011;26952;42.884;23.918;2023-01-19T07:01:34;35.45;;;11.80;;
41221;SDS011;26952;42.884;23.918;2023-01-19T07:03:59;46.65;;;11.77;;
41221;SDS011;26952;42.884;23.918;2023-01-19T07:06:25;43.17;;;11.35;;
41221;SDS011;26952;42.884;23.918;2023-01-19T07:08:51;37.20;;;11.85;;
41221;SDS011;26952;42.884;23.918;2023-01-19T07:11:16;39.40;;;12.05;;
41221;SDS011;26952;42.884;23.918;2023-01-19T07:13:41;27.10;;;11.57;;
41221;SDS011;26952;42.884;23.918;2023-01-19T07:16:11;37.38;;;12.15;;
41221;SDS011;26952;42.884;23.918;2023-01-19T07:18:38;42.67;;;12.82;;
41221;SDS011;26952;42.884;23.918;2023-01-19T07:21:05;28.15;;;10.00;;
41221;SDS011;26952;42.884;23.918;2023-01-19T07:23:31;37.92;;;11.43;;
41221;SDS011;26952;42.884;23.918;2023-01-19T07:25:56;42.03;;;11.27;;
41221;SDS011;26952;42.884;23.918;2023-01-19T07:28:24;38.95;;;12.07;;
41221;SDS011;26952;42.884;23.918;2023-01-19T07:30:50;46.47;;;12.05;;
41221;SDS011;26952;42.884;23.918;2023-01-19T07:33:16;44.10;;;11.32;;
41221;SDS011;26952;42.884;23.918;2023-01-19T07:35:45;39.42;;;11.50;;
41221;SDS011;26952;42.884;23.918;2023-01-19T07:38:12;34.15;;;10.40;;
41221;SDS011;26952;42.884;23.918;2023-01-19T07:40:38;29.50;;;11.77;;
41221;SDS011;26952;42.884;23.918;2023-01-19T07:43:03;34.47;;;11.15;;
41221;SDS011;26952;42.884;23.918;2023-01-19T07:45:28;42.60;;;10.93;;
41221;SDS011;26952;42.884;23.918;2023-01-19T07:47:54;44.33;;;12.18;;
41221;SDS011;26952;42.884;23.918;2023-01-19T07:50:19;41.97;;;12.27;;
41221;SDS011;26952;42.884;23.918;2023-01-19T07:52:48;49.53;;;11.80;;
41221;SDS011;26952;42.884;23.918;2023-01-19T07:55:17;44.50;;;13.07;;
41221;SDS011;26952;42.884;23.918;2023-01-19T07:57:43;42.10;;;11.48;;
41221;SDS011;26952;42.884;23.918;2023-01-19T08:00:08;33.92;;;12.40;;
41221;SDS011;26952;42.884;23.918;2023-01-19T08:02:34;50.70;;;12.85;;
41221;SDS011;26952;42.884;23.918;2023-01-19T08:05:01;39.00;;;11.85;;
41221;SDS011;26952;42.884;23.918;2023-01-19T08:07:26;42.67;;;11.25;;
41221;SDS011;26952;42.884;23.918;2023-01-19T08:09:52;48.25;;;13.13;;
41221;SDS011;26952;42.884;23.918;2023-01-19T08:12:17;44.92;;;11.57;;
41221;SDS011;26952;42.884;23.918;2023-01-19T08:14:43;45.70;;;11.57;;
41221;SDS011;26952;42.884;23.918;2023-01-19T08:17:08;39.63;;;11.88;;
41221;SDS011;26952;42.884;23.918;2023-01-19T08:19:36;37.53;;;11.35;;
41221;SDS011;26952;42.884;23.918;2023-01-19T08:22:02;33.05;;;12.52;;
41221;SDS011;26952;42.884;23.918;2023-01-19T08:24:27;44.08;;;11.27;;
41221;SDS011;26952;42.884;23.918;2023-01-19T08:27:03;44.83;;;11.32;;
41221;SDS011;26952;42.884;23.918;2023-01-19T08:29:28;42.42;;;11.98;;
41221;SDS011;26952;42.884;23.918;2023-01-19T08:31:57;33.25;;;10.23;;
41221;SDS011;26952;42.884;23.918;2023-01-19T08:34:25;43.53;;;11.63;;
41221;SDS011;26952;42.884;23.918;2023-01-19T08:36:51;38.20;;;12.15;;
41221;SDS011;26952;42.884;23.918;2023-01-19T08:39:16;33.85;;;10.93;;
41221;SDS011;26952;42.884;23.918;2023-01-19T08:41:42;33.25;;;9.45;;
41221;SDS011;26952;42.884;23.918;2023-01-19T08:44:08;49.30;;;11.23;;
41221;SDS011;26952;42.884;23.918;2023-01-19T08:46:33;42.55;;;11.48;;
41221;SDS011;26952;42.884;23.918;2023-01-19T08:48:59;43.42;;;11.90;;
41221;SDS011;26952;42.884;23.918;2023-01-19T08:51:24;39.10;;;15.95;;
41221;SDS011;26952;42.884;23.918;2023-01-19T08:53:50;37.10;;;13.18;;
41221;SDS011;26952;42.884;23.918;2023-01-19T08:56:15;40.15;;;15.75;;
41221;SDS011;26952;42.884;23.918;2023-01-19T08:58:41;37.90;;;17.48;;
41221;SDS011;26952;42.884;23.918;2023-01-19T09:01:08;43.75;;;15.50;;
41221;SDS011;26952;42.884;23.918;2023-01-19T09:03:34;43.28;;;15.15;;
41221;SDS011;26952;42.884;23.918;2023-01-19T09:06:00;36.05;;;15.18;;
41221;SDS011;26952;42.884;23.918;2023-01-19T09:08:28;39.13;;;14.50;;
41221;SDS011;26952;42.884;23.918;2023-01-19T09:10:54;38.55;;;12.15;;
41221;SDS011;26952;42.884;23.918;2023-01-19T09:13:19;42.97;;;12.32;;
41221;SDS011;26952;42.884;23.918;2023-01-19T09:15:45;42.00;;;10.48;;
41221;SDS011;26952;42.884;23.918;2023-01-19T09:18:11;40.80;;;13.10;;
41221;SDS011;26952;42.884;23.918;2023-01-19T09:20:41;53.33;;;12.63;;
41221;SDS011;26952;42.884;23.918;2023-01-19T09:23:08;40.35;;;10.90;;
41221;SDS011;26952;42.884;23.918;2023-01-19T09:25:35;38.53;;;11.05;;
41221;SDS011;26952;42.884;23.918;2023-01-19T09:28:03;40.65;;;11.05;;
41221;SDS011;26952;42.884;23.918;2023-01-19T09:30:33;49.58;;;11.18;;
41221;SDS011;26952;42.884;23.918;2023-01-19T09:33:05;45.13;;;11.88;;
41221;SDS011;26952;42.884;23.918;2023-01-19T09:35:32;47.42;;;13.10;;
41221;SDS011;26952;42.884;23.918;2023-01-19T09:37:58;46.92;;;10.73;;
41221;SDS011;26952;42.884;23.918;2023-01-19T09:40:23;45.88;;;11.30;;
41221;SDS011;26952;42.884;23.918;2023-01-19T09:42:50;35.55;;;11.00;;
41221;SDS011;26952;42.884;23.918;2023-01-19T09:45:33;36.70;;;9.98;;
41221;SDS011;26952;42.884;23.918;2023-01-19T09:48:03;34.58;;;10.32;;
41221;SDS011;26952;42.884;23.918;2023-01-19T09:50:46;36.28;;;11.48;;
41221;SDS011;26952;42.884;23.918;2023-01-19T09:53:15;40.90;;;11.32;;
41221;SDS011;26952;42.884;23.918;2023-01-19T09:55:46;53.42;;;12.73;;
41221;SDS011;26952;42.884;23.918;2023-01-19T09:58:15;40.92;;;12.45;;
41221;SDS011;26952;42.884;23.918;2023-01-19T10:00:46;40.03;;;12.57;;
41221;SDS011;26952;42.884;23.918;2023-01-19T10:03:19;42.63;;;13.45;;
41221;SDS011;26952;42.884;23.918;2023-01-19T10:05:47;35.53;;;11.75;;
41221;SDS011;26952;42.884;23.918;2023-01-19T10:10:51;34.55;;;10.95;;
41221;SDS011;26952;42.884;23.918;2023-01-19T10:18:43;37.42;;;12.25;;
41221;SDS011;26952;42.884;23.918;2023-01-19T10:21:28;34.80;;;12.52;;
41221;SDS011;26952;42.884;23.918;2023-01-19T10:26:38;44.45;;;13.07;;
41221;SDS011;26952;42.884;23.918;2023-01-19T10:29:14;35.15;;;11.65;;
41221;SDS011;26952;42.884;23.918;2023-01-19T10:32:13;37.67;;;11.85;;
41221;SDS011;26952;42.884;23.918;2023-01-19T10:34:45;33.05;;;12.27;;
41221;SDS011;26952;42.884;23.918;2023-01-19T10:37:24;39.05;;;13.05;;
41221;SDS011;26952;42.884;23.918;2023-01-19T10:40:18;42.15;;;11.95;;
41221;SDS011;26952;42.884;23.918;2023-01-19T10:45:19;30.17;;;10.05;;
41221;SDS011;26952;42.884;23.918;2023-01-19T10:47:47;35.25;;;10.40;;
41221;SDS011;26952;42.884;23.918;2023-01-19T10:50:29;32.22;;;10.70;;
41221;SDS011;26952;42.884;23.918;2023-01-19T10:52:57;36.03;;;11.98;;
41221;SDS011;26952;42.884;23.918;2023-01-19T10:57:49;27.77;;;9.93;;
41221;SDS011;26952;42.884;23.918;2023-01-19T11:00:30;37.83;;;16.25;;
41221;SDS011;26952;42.884;23.918;2023-01-19T11:05:47;30.50;;;9.73;;
41221;SDS011;26952;42.884;23.918;2023-01-19T11:08:20;36.30;;;10.93;;
41221;SDS011;26952;42.884;23.918;2023-01-19T11:10:51;35.83;;;11.63;;
41221;SDS011;26952;42.884;23.918;2023-01-19T11:15:54;32.72;;;11.13;;
41221;SDS011;26952;42.884;23.918;2023-01-19T11:18:41;29.85;;;12.43;;
41221;SDS011;26952;42.884;23.918;2023-01-19T11:21:11;29.20;;;11.48;;
41221;SDS011;26952;42.884;23.918;2023-01-19T11:23:40;35.38;;;11.43;;
41221;SDS011;26952;42.884;23.918;2023-01-19T11:26:29;34.60;;;10.68;;
41221;SDS011;26952;42.884;23.918;2023-01-19T11:28:59;33.63;;;11.45;;
41221;SDS011;26952;42.884;23.918;2023-01-19T11:33:53;31.67;;;9.10;;
41221;SDS011;26952;42.884;23.918;2023-01-19T11:36:21;38.88;;;10.45;;
41221;SDS011;26952;42.884;23.918;2023-01-19T11:38:58;35.35;;;11.77;;
41221;SDS011;26952;42.884;23.918;2023-01-19T11:41:44;33.65;;;10.90;;
41221;SDS011;26952;42.884;23.918;2023-01-19T11:44:20;30.48;;;10.75;;
41221;SDS011;26952;42.884;23.918;2023-01-19T11:46:47;35.10;;;11.48;;
41221;SDS011;26952;42.884;23.918;2023-01-19T11:49:19;28.65;;;10.63;;
41221;SDS011;26952;42.884;23.918;2023-01-19T11:52:52;29.55;;;12.07;;
41221;SDS011;26952;42.884;23.918;2023-01-19T11:55:11;21.20;;;9.95;;
41221;SDS011;26952;42.884;23.918;2023-01-19T11:57:47;28.02;;;11.43;;
41221;SDS011;26952;42.884;23.918;2023-01-19T12:05:30;20.33;;;7.43;;
41221;SDS011;26952;42.884;23.918;2023-01-19T12:07:59;26.80;;;9.10;;
41221;SDS011;26952;42.884;23.918;2023-01-19T12:10:28;31.63;;;8.77;;
41221;SDS011;26952;42.884;23.918;2023-01-19T12:12:57;21.38;;;9.18;;
41221;SDS011;26952;42.884;23.918;2023-01-19T12:18:15;21.83;;;10.60;;
41221;SDS011;26952;42.884;23.918;2023-01-19T12:20:49;25.95;;;9.27;;
41221;SDS011;26952;42.884;23.918;2023-01-19T12:28:39;24.90;;;9.32;;
41221;SDS011;26952;42.884;23.918;2023-01-19T12:31:09;21.40;;;8.95;;
41221;SDS011;26952;42.884;23.918;2023-01-19T12:33:40;27.77;;;8.75;;
41221;SDS011;26952;42.884;23.918;2023-01-19T12:46:35;23.10;;;9.00;;
41221;SDS011;26952;42.884;23.918;2023-01-19T12:52:39;20.02;;;9.20;;
41221;SDS011;26952;42.884;23.918;2023-01-19T12:57:23;19.73;;;9.48;;
41221;SDS011;26952;42.884;23.918;2023-01-19T12:59:55;28.20;;;9.25;;
41221;SDS011;26952;42.884;23.918;2023-01-19T13:16:43;19.05;;;7.25;;
41221;SDS011;26952;42.884;23.918;2023-01-19T13:21:36;15.43;;;6.50;;
41221;SDS011;26952;42.884;23.918;2023-01-19T13:24:10;21.02;;;7.43;;
41221;SDS011;26952;42.884;23.918;2023-01-19T13:31:48;15.65;;;7.45;;
41221;SDS011;26952;42.884;23.918;2023-01-19T13:34:23;17.10;;;7.97;;
41221;SDS011;26952;42.884;23.918;2023-01-19T13:36:52;22.17;;;7.10;;
41221;SDS011;26952;42.884;23.918;2023-01-19T13:42:26;18.17;;;7.45;;
41221;SDS011;26952;42.884;23.918;2023-01-19T13:44:56;21.63;;;7.22;;
41221;SDS011;26952;42.884;23.918;2023-01-19T13:47:25;14.02;;;6.45;;
41221;SDS011;26952;42.884;23.918;2023-01-19T13:49:58;20.98;;;8.05;;
41221;SDS011;26952;42.884;23.918;2023-01-19T13:52:26;13.88;;;6.70;;
41221;SDS011;26952;42.884;23.918;2023-01-19T13:54:59;16.45;;;6.68;;
41221;SDS011;26952;42.884;23.918;2023-01-19T14:05:29;16.25;;;7.22;;
41221;SDS011;26952;42.884;23.918;2023-01-19T14:10:30;19.88;;;7.75;;
41221;SDS011;26952;42.884;23.918;2023-01-19T14:13:00;19.08;;;8.65;;
41221;SDS011;26952;42.884;23.918;2023-01-19T14:21:06;17.13;;;7.30;;
41221;SDS011;26952;42.884;23.918;2023-01-19T14:23:34;11.80;;;8.52;;
41221;SDS011;26952;42.884;23.918;2023-01-19T14:31:33;10.98;;;6.90;;
41221;SDS011;26952;42.884;23.918;2023-01-19T14:34:27;19.80;;;8.27;;
41221;SDS011;26952;42.884;23.918;2023-01-19T14:37:04;11.25;;;7.05;;
41221;SDS011;26952;42.884;23.918;2023-01-19T14:39:42;13.68;;;6.97;;
41221;SDS011;26952;42.884;23.918;2023-01-19T14:42:10;17.08;;;8.32;;
41221;SDS011;26952;42.884;23.918;2023-01-19T14:44:44;13.63;;;7.03;;
41221;SDS011;26952;42.884;23.918;2023-01-19T14:47:51;14.10;;;6.90;;
41221;SDS011;26952;42.884;23.918;2023-01-19T14:50:17;15.45;;;7.38;;
41221;SDS011;26952;42.884;23.918;2023-01-19T14:52:48;9.70;;;6.18;;
41221;SDS011;26952;42.884;23.918;2023-01-19T14:55:36;9.10;;;6.28;;
41221;SDS011;26952;42.884;23.918;2023-01-19T14:58:10;12.63;;;6.03;;
41221;SDS011;26952;42.884;23.918;2023-01-19T15:00:37;12.35;;;6.32;;
41221;SDS011;26952;42.884;23.918;2023-01-19T15:03:03;14.18;;;7.47;;
41221;SDS011;26952;42.884;23.918;2023-01-19T15:05:30;20.23;;;6.85;;
41221;SDS011;26952;42.884;23.918;2023-01-19T15:07:56;10.85;;;6.13;;
41221;SDS011;26952;42.884;23.918;2023-01-19T15:10:22;12.25;;;6.45;;
41221;SDS011;26952;42.884;23.918;2023-01-19T15:12:49;13.48;;;6.38;;
41221;SDS011;26952;42.884;23.918;2023-01-19T15:15:19;14.35;;;5.72;;
41221;SDS011;26952;42.884;23.918;2023-01-19T15:17:50;12.32;;;5.82;;
41221;SDS011;26952;42.884;23.918;2023-01-19T15:20:18;11.25;;;5.50;;
41221;SDS011;26952;42.884;23.918;2023-01-19T15:22:46;8.20;;;5.82;;
41221;SDS011;26952;42.884;23.918;2023-01-19T15:25:15;11.55;;;4.82;;
41221;SDS011;26952;42.884;23.918;2023-01-19T15:27:43;12.80;;;5.07;;
41221;SDS011;26952;42.884;23.918;2023-01-19T15:30:14;12.98;;;5.07;;
41221;SDS011;26952;42.884;23.918;2023-01-19T15:32:42;17.67;;;5.80;;
41221;SDS011;26952;42.884;23.918;2023-01-19T15:35:12;12.00;;;5.68;;
41221;SDS011;26952;42.884;23.918;2023-01-19T15:40:03;8.02;;;4.03;;
41221;SDS011;26952;42.884;23.918;2023-01-19T15:42:29;12.80;;;5.40;;
41221;SDS011;26952;42.884;23.918;2023-01-19T15:44:55;17.25;;;5.85;;
41221;SDS011;26952;42.884;23.918;2023-01-19T15:47:20;14.57;;;5.55;;
41221;SDS011;26952;42.884;23.918;2023-01-19T15:49:45;14.98;;;6.15;;
41221;SDS011;26952;42.884;23.918;2023-01-19T15:52:11;10.75;;;6.50;;
41221;SDS011;26952;42.884;23.918;2023-01-19T15:54:36;14.75;;;6.57;;
41221;SDS011;26952;42.884;23.918;2023-01-19T15:57:02;14.85;;;6.68;;
41221;SDS011;26952;42.884;23.918;2023-01-19T15:59:27;10.93;;;6.20;;
41221;SDS011;26952;42.884;23.918;2023-01-19T16:01:52;12.38;;;6.57;;
41221;SDS011;26952;42.884;23.918;2023-01-19T16:04:18;14.70;;;7.00;;
41221;SDS011;26952;42.884;23.918;2023-01-19T16:06:43;9.00;;;6.03;;
41221;SDS011;26952;42.884;23.918;2023-01-19T16:09:09;18.65;;;7.72;;
41221;SDS011;26952;42.884;23.918;2023-01-19T16:11:37;14.13;;;7.25;;
41221;SDS011;26952;42.884;23.918;2023-01-19T16:14:03;13.65;;;7.68;;
41221;SDS011;26952;42.884;23.918;2023-01-19T16:16:28;15.10;;;7.93;;
41221;SDS011;26952;42.884;23.918;2023-01-19T16:18:54;12.45;;;7.60;;
41221;SDS011;26952;42.884;23.918;2023-01-19T16:21:20;12.15;;;7.45;;
41221;SDS011;26952;42.884;23.918;2023-01-19T16:23:46;16.42;;;7.72;;
41221;SDS011;26952;42.884;23.918;2023-01-19T16:28:51;11.73;;;7.63;;
41221;SDS011;26952;42.884;23.918;2023-01-19T16:31:27;13.43;;;7.50;;
41221;SDS011;26952;42.884;23.918;2023-01-19T16:33:53;13.10;;;8.48;;